メインページ
METAR-TAF:

METAR-TAF

空港 :

サンパウロ, サンパウロ州, ブラジル

コンゴーニャス空港

緯度: 23-37S, 経度: 046-39W, 海抜: 803m

現時点の気象観測

当レポートは19分前の02:00(UTC)に作成
南東の風 6kt
気温 16°C
湿度 88%
気圧 1026 hPa
視程10km以上
高度2700ftの千切れ雲あり
高度3000ftの千切れ雲あり

METAR: SBSP 010200Z 13006KT 9999 BKN027 BKN030 16/14 Q1026

時間: 23:19 (02:19 UTC)

予報

当レポートは4時間15分前の22:04(UTC)に作成
予報は01日の 00時(UTC)から 01日の 24時(UTC)まで有効
南東の風 10kt
視程10km以上
高度1100ftの雲はほとんどない
確率 30%
01日の 00時(UTC)から 01日の 03時(UTC)まで
高度1100ftの千切れ雲あり
01日の 03時(UTC)から 01日の 05時(UTC)まで徐々に
東/南東の風 5kt
確率 30%
01日の 07時(UTC)から 01日の 10時(UTC)まで
高度700ftの千切れ雲あり
01日の 10時(UTC)から 01日の 12時(UTC)まで徐々に
東/南東の風 5kt
高度1500ftの雲はほとんどない
01日の 14時(UTC)から 01日の 16時(UTC)まで徐々に
の風 5kt
高度2700ftの雲はほとんどない
01日の 17時(UTC)から 01日の 19時(UTC)まで徐々に
南/南東の風 10kt
高度2000ftの雲はほとんどない
確率 30%
01日の 21時(UTC)から 01日の 23時(UTC)まで
高度1500ftの千切れ雲あり

TAF: SBSP 302204Z 0100/0124 14010KT 9999 FEW011 TN16/0107Z TX22/0116Z PROB30 0100/0103 BKN011 BECMG 0103/0105 12005KT PROB30 0107/0110 BKN007 BECMG 0110/0112 11005KT FEW015 BECMG 0114/0116 09005KT FEW027 BECMG 0117/0119 15010KT FEW020 PROB30 0121/0123 BKN015 RMK PGM

4,000以上の空港の気象観測と天気予報(METAR報とTAF報)

利用可能な観測所は地図上に黄色い丸と赤い丸で示す。

丸の上にカーソルを重ねると観測所名を参照できる。

次にクリックすると気象観測と天気予報を参照できる。

マップの切り替え:黒色「×」印の緑ボタンをクリックして拡大、「-」印の緑ボタンをクリックして縮小、緑色の三角印をクリックして隣りの地図に切り替え


METAR-TAF: